Riviere-A-Pierre, Canada
Current Conditions -  °F | °C
As of 6:00 PM on Tuesday 21 Oct 2014 (Local Time) from CYOY Reporting Station
Broken Clouds Broken Clouds  
Wind Chill: 45°   Ceiling: 5600
Heat Index: 45°   Visibility: 15mi
Dew Point: 25°   Wind: 2mph
Humidity: 46%   Direction: 70°ENE
Pressure: 30.15"   Gusts: NA
Location:  46.98°N, 72.18°W
Report Text: CYOY 212200Z 07002KT 15SM BKN056 BKN080 BKN200 07/M04 A3015 RMK SC6AC1CI1 SLP217
Loading
Personal Weather Stations






























Interactive Weather Map
Tropical Storm Tracking
New forecast layout! Learn more

10-Day Weather Forecast

Advertisements
Track Severe Weather on mobile